| time (UTC) | temp F | wind direction | speed knots | gust knots | rain 1hr in | rain 24hr in | rain mn in | humidity % | barometer mb |
| 20260504212204 | 50 | 268 | 7.0 | 12.2 | 0.00 | 0.03 | 0.01 | 69 | 1000.0 |
| 20260504211204 | 50 | 266 | 4.3 | 11.3 | 0.00 | 0.03 | 0.01 | 68 | 999.8 |
| 20260504210204 | 50 | 246 | 5.2 | 13.0 | 0.00 | 0.03 | 0.01 | 68 | 999.8 |
| 20260504205225 | 50 | 251 | 3.5 | 13.0 | 0.00 | 0.04 | 0.01 | 69 | 999.7 |
| 20260504204203 | 50 | 269 | 1.7 | 7.8 | 0.00 | 0.04 | 0.01 | 71 | 999.7 |
| 20260504203204 | 49 | 270 | 2.6 | 7.0 | 0.00 | 0.05 | 0.01 | 74 | 999.8 |
| 20260504202203 | 49 | 260 | 3.5 | 7.8 | 0.00 | 0.05 | 0.01 | 76 | 999.8 |
| 20260504201203 | 48 | 290 | 4.3 | 8.7 | 0.00 | 0.06 | 0.01 | 79 | 999.8 |
| 20260504200204 | 48 | 239 | 0.0 | 5.2 | 0.00 | 0.06 | 0.01 | 79 | 999.8 |
| 20260504195203 | 48 | 256 | 1.7 | 5.2 | 0.01 | 0.07 | 0.01 | 78 | 999.8 |
| 20260504194203 | 48 | 243 | 0.9 | 6.1 | 0.01 | 0.07 | 0.01 | 78 | 999.8 |
| 20260504193203 | 49 | 229 | 0.0 | 8.7 | 0.01 | 0.08 | 0.01 | 79 | 999.8 |
| 20260504192203 | 49 | 270 | 2.6 | 6.1 | 0.01 | 0.09 | 0.01 | 78 | 999.8 |
| 20260504191223 | 49 | 263 | 5.2 | 10.4 | 0.01 | 0.09 | 0.01 | 74 | 999.7 |
| 20260504185203 | 51 | 241 | 0.9 | 8.7 | 0.00 | 0.10 | 0.00 | 70 | 999.7 |
| 20260504184224 | 52 | 255 | 0.9 | 11.3 | 0.00 | 0.10 | 0.00 | 62 | 999.6 |
| 20260504183203 | 52 | 257 | 2.6 | 8.7 | 0.00 | 0.11 | 0.00 | 57 | 999.6 |
| 20260504182203 | 52 | 260 | 1.7 | 13.9 | 0.00 | 0.12 | 0.00 | 57 | 999.6 |
| 20260504181205 | 53 | 250 | 5.2 | 13.9 | 0.00 | 0.12 | 0.00 | 53 | 999.3 |
| 20260504180205 | 54 | 230 | 4.3 | 11.3 | 0.00 | 0.13 | 0.00 | 50 | 999.3 |
| 20260504175205 | 55 | 251 | 4.3 | 12.2 | 0.00 | 0.13 | 0.00 | 45 | 999.1 |
| 20260504174204 | 56 | 244 | 3.5 | 12.2 | 0.00 | 0.14 | 0.00 | 40 | 999.0 |
| 20260504173226 | 56 | 257 | 3.5 | 8.7 | 0.00 | 0.14 | 0.00 | 37 | 998.9 |
| 20260504172205 | 56 | 275 | 6.1 | 13.9 | 0.00 | 0.14 | 0.00 | 36 | 998.9 |
| 20260504171204 | 57 | 268 | 9.6 | 16.5 | 0.00 | 0.14 | 0.00 | 34 | 998.6 |
| 20260504170205 | 58 | 241 | 5.2 | 12.2 | 0.00 | 0.15 | 0.00 | 31 | 998.6 |
| 20260504160204 | 58 | 300 | 7.8 | 14.8 | 0.00 | 0.18 | 0.00 | 31 | 998.6 |
| 20260504150224 | 55 | 252 | 5.2 | 13.0 | 0.00 | 0.23 | 0.00 | 39 | 999.6 |
| 20260504141203 | 52 | 275 | 2.6 | 13.0 | 0.00 | 0.27 | 0.00 | 47 | 1000.2 |
| 20260504110226 | 35 | 236 | 0.0 | 7.0 | 0.00 | 0.42 | 0.00 | 83 | 1000.5 |
| 20260504100225 | 31 | 252 | 0.0 | 0.9 | 0.00 | 0.46 | 0.00 | 88 | 1000.5 |
| 20260504081203 | 34 | 315 | 2.6 | 10.4 | 0.00 | 0.51 | 0.00 | 85 | 999.4 |
| 20260504070204 | 34 | 281 | 3.5 | 6.1 | 0.00 | 0.51 | 0.00 | 86 | 998.5 |
| 20260504060203 | 36 | 342 | 1.7 | 6.1 | 0.00 | 0.51 | 0.00 | 83 | 998.3 |
| 20260504050203 | 38 | 316 | 3.5 | 10.4 | 0.00 | 0.51 | 0.00 | 84 | 998.3 |
| 20260504045203 | 38 | 312 | 3.5 | 10.4 | 0.00 | 0.51 | 0.00 | 83 | 998.3 |
| 20260504044203 | 38 | 276 | 2.6 | 11.3 | 0.00 | 0.51 | 0.00 | 84 | 998.2 |
| 20260504043224 | 39 | 312 | 3.5 | 12.2 | 0.00 | 0.51 | 0.00 | 85 | 998.2 |
| 20260504042203 | 39 | 316 | 3.5 | 9.6 | 0.00 | 0.51 | 0.00 | 86 | 998.2 |
| 20260504041203 | 39 | 315 | 3.5 | 11.3 | 0.00 | 0.51 | 0.00 | 88 | 998.2 |
| 20260504035204 | 40 | 319 | 3.5 | 6.1 | 0.00 | 0.52 | 0.51 | 93 | 998.0 |
| 20260504034204 | 40 | 328 | 2.6 | 6.1 | 0.00 | 0.52 | 0.51 | 94 | 997.8 |
| 20260504033203 | 40 | 354 | 0.9 | 9.6 | 0.00 | 0.52 | 0.51 | 95 | 997.8 |
| 20260504032204 | 40 | 350 | 3.5 | 5.2 | 0.00 | 0.52 | 0.51 | 95 | 998.0 |
| 20260504031203 | 40 | 9 | 5.2 | 13.9 | 0.00 | 0.53 | 0.51 | 95 | 998.0 |
| 20260504030204 | 40 | 334 | 1.7 | 10.4 | 0.00 | 0.53 | 0.51 | 95 | 998.0 |
| 20260504025203 | 40 | 320 | 2.6 | 8.7 | 0.00 | 0.53 | 0.51 | 94 | 998.0 |
| 20260504024204 | 40 | 330 | 3.5 | 7.8 | 0.00 | 0.53 | 0.51 | 94 | 997.9 |
| 20260504023203 | 40 | 320 | 0.9 | 5.2 | 0.00 | 0.53 | 0.51 | 93 | 997.9 |
| 20260504022203 | 40 | 355 | 1.7 | 5.2 | 0.00 | 0.53 | 0.51 | 93 | 997.7 |
| 20260504021225 | 40 | 347 | 4.3 | 12.2 | 0.00 | 0.53 | 0.51 | 93 | 997.7 |
| 20260504020203 | 40 | 337 | 5.2 | 10.4 | 0.00 | 0.53 | 0.51 | 93 | 997.7 |
| 20260504015203 | 40 | 346 | 5.2 | 14.8 | 0.00 | 0.53 | 0.51 | 94 | 997.7 |
| 20260504014203 | 40 | 346 | 6.1 | 12.2 | 0.00 | 0.53 | 0.51 | 95 | 998.0 |
| 20260504013203 | 40 | 329 | 6.1 | 10.4 | 0.00 | 0.53 | 0.51 | 95 | 998.0 |
| 20260504012202 | 40 | 357 | 6.1 | 14.8 | 0.00 | 0.53 | 0.51 | 96 | 997.9 |
| 20260504011203 | 40 | 354 | 5.2 | 10.4 | 0.00 | 0.53 | 0.51 | 95 | 997.8 |
| 20260504005205 | 40 | 2 | 7.0 | 9.6 | 0.00 | 0.53 | 0.51 | 95 | 997.7 |
| 20260504004204 | 40 | 350 | 5.2 | 10.4 | 0.00 | 0.53 | 0.51 | 95 | 997.7 |
| 20260504003204 | 40 | 12 | 2.6 | 8.7 | 0.00 | 0.53 | 0.51 | 95 | 997.7 |
| 20260504002204 | 40 | 352 | 3.5 | 14.8 | 0.00 | 0.53 | 0.51 | 95 | 997.7 |
| 20260504001225 | 40 | 5 | 1.7 | 10.4 | 0.00 | 0.53 | 0.51 | 95 | 997.7 |
| 20260504000204 | 40 | 359 | 2.6 | 10.4 | 0.00 | 0.53 | 0.51 | 95 | 997.7 |
| 20260503235225 | 40 | 324 | 3.5 | 11.3 | 0.01 | 0.53 | 0.51 | 95 | 997.5 |
| 20260503234225 | 40 | 348 | 3.5 | 12.2 | 0.00 | 0.53 | 0.50 | 95 | 997.5 |
| 20260503233204 | 40 | 359 | 3.5 | 13.0 | 0.00 | 0.53 | 0.50 | 95 | 997.5 |
| 20260503232204 | 41 | 337 | 5.2 | 12.2 | 0.00 | 0.53 | 0.50 | 95 | 997.5 |
| 20260503231225 | 41 | 339 | 2.6 | 8.7 | 0.00 | 0.53 | 0.50 | 95 | 997.6 |
| 20260503230203 | 41 | 359 | 2.6 | 7.8 | 0.00 | 0.53 | 0.50 | 95 | 997.6 |
| 20260503225225 | 41 | 4 | 5.2 | 11.3 | 0.01 | 0.53 | 0.50 | 95 | 997.7 |
| 20260503224203 | 41 | 342 | 5.2 | 13.9 | 0.01 | 0.53 | 0.50 | 94 | 997.7 |
| 20260503223204 | 41 | 356 | 7.0 | 13.0 | 0.00 | 0.52 | 0.49 | 94 | 997.6 |
| 20260503222204 | 41 | 1 | 5.2 | 9.6 | 0.00 | 0.52 | 0.49 | 94 | 997.6 |
| 20260503221224 | 41 | 352 | 7.0 | 11.3 | 0.00 | 0.53 | 0.49 | 94 | 997.6 |
| 20260503220203 | 41 | 349 | 7.0 | 11.3 | 0.00 | 0.53 | 0.49 | 95 | 997.6 |
| 20260503215203 | 41 | 359 | 6.1 | 10.4 | 0.01 | 0.53 | 0.49 | 95 | 997.7 |
| 20260503214224 | 41 | 339 | 4.3 | 11.3 | 0.01 | 0.53 | 0.49 | 95 | 997.9 |
| 20260503213203 | 41 | 14 | 5.2 | 9.6 | 0.01 | 0.54 | 0.49 | 95 | 998.2 |